createdAt,value
2022-10-18T00:00:11.189Z,20.00
2022-10-18T00:02:37.825Z,15.30
2022-10-18T00:05:05.005Z,23.17
2022-10-18T00:07:33.025Z,22.60
2022-10-18T00:09:59.874Z,15.37
2022-10-18T00:12:26.562Z,16.00
2022-10-18T00:14:53.269Z,25.00
2022-10-18T00:17:19.872Z,18.40
2022-10-18T00:19:46.569Z,14.40
2022-10-18T00:22:13.249Z,13.83
2022-10-18T00:24:39.894Z,17.40
2022-10-18T00:27:06.685Z,15.50
2022-10-18T00:29:33.272Z,14.50
2022-10-18T00:31:59.904Z,17.60
2022-10-18T00:34:26.501Z,19.43
2022-10-18T00:36:53.187Z,17.70
2022-10-18T00:39:21.629Z,17.40
2022-10-18T00:41:51.862Z,24.40
2022-10-18T00:44:18.500Z,18.92
2022-10-18T00:46:48.397Z,25.67
2022-10-18T00:49:22.269Z,16.50
2022-10-18T00:51:56.121Z,20.98
2022-10-18T00:54:23.638Z,14.70
2022-10-18T00:56:50.812Z,15.20
2022-10-18T00:59:18.932Z,19.30
2022-10-18T01:01:45.872Z,17.27
2022-10-18T01:04:18.050Z,17.30
2022-10-18T01:09:35.317Z,16.07
2022-10-18T01:12:12.359Z,16.80
2022-10-18T01:15:01.736Z,17.60
2022-10-18T01:17:54.687Z,20.38
2022-10-18T01:20:39.694Z,18.10
2022-10-18T01:23:38.334Z,17.13
2022-10-18T01:26:17.057Z,16.70
2022-10-18T01:29:14.589Z,15.37
2022-10-18T01:31:58.944Z,16.60
2022-10-18T01:34:31.724Z,15.77
2022-10-18T01:37:01.124Z,18.15
2022-10-18T01:39:31.900Z,15.17
2022-10-18T01:42:02.660Z,19.10
2022-10-18T01:44:32.830Z,18.60
2022-10-18T01:47:00.306Z,17.73
2022-10-18T01:49:27.442Z,17.67
2022-10-18T01:51:54.331Z,16.23
2022-10-18T01:54:27.458Z,19.97
2022-10-18T01:57:00.322Z,19.20
2022-10-18T01:59:54.128Z,16.00
2022-10-18T02:02:44.000Z,16.80
2022-10-18T02:05:27.248Z,16.33
2022-10-18T02:08:22.057Z,14.90
2022-10-18T02:11:12.853Z,17.40
2022-10-18T02:14:00.125Z,15.83
2022-10-18T02:16:34.568Z,16.90
2022-10-18T02:19:10.714Z,16.63
2022-10-18T02:21:41.042Z,17.10
2022-10-18T02:24:09.305Z,17.73
2022-10-18T02:26:35.992Z,15.50
2022-10-18T02:29:02.810Z,21.80
2022-10-18T02:31:50.100Z,20.30
2022-10-18T02:34:23.904Z,15.90
2022-10-18T02:37:01.302Z,18.20
2022-10-18T02:39:34.720Z,19.50
2022-10-18T02:42:06.508Z,19.60
2022-10-18T02:44:36.969Z,20.37
2022-10-18T02:47:04.816Z,21.30
2022-10-18T02:49:32.681Z,23.37
2022-10-18T02:51:59.246Z,20.13
2022-10-18T02:54:25.922Z,22.97
2022-10-18T02:56:52.506Z,19.87
2022-10-18T02:59:19.311Z,19.17
2022-10-18T03:01:46.025Z,17.57
2022-10-18T03:04:12.775Z,15.87
2022-10-18T03:06:39.554Z,18.30
2022-10-18T03:09:06.961Z,17.60
2022-10-18T03:11:33.609Z,19.90
2022-10-18T03:14:00.213Z,16.63
2022-10-18T03:16:26.814Z,16.40
2022-10-18T03:18:53.486Z,21.57
2022-10-18T03:21:20.067Z,17.13
2022-10-18T03:23:46.629Z,18.00
2022-10-18T03:26:13.278Z,19.70
2022-10-18T03:28:39.907Z,17.35
2022-10-18T03:31:06.555Z,16.27
2022-10-18T03:33:33.305Z,18.00
2022-10-18T03:36:00.090Z,20.27
2022-10-18T03:38:27.219Z,23.03
2022-10-18T03:40:53.905Z,27.43
2022-10-18T03:43:20.585Z,21.77
2022-10-18T03:45:47.302Z,19.53
2022-10-18T03:48:14.037Z,20.23
2022-10-18T03:50:40.746Z,24.23
2022-10-18T03:53:07.359Z,19.30
2022-10-18T03:55:33.956Z,24.30
2022-10-18T03:58:00.576Z,33.67
2022-10-18T04:00:27.177Z,27.27
2022-10-18T04:02:55.889Z,27.50
2022-10-18T04:05:31.054Z,29.43
2022-10-18T04:07:58.044Z,28.17
2022-10-18T04:10:24.746Z,30.50
2022-10-18T04:12:51.552Z,33.57
2022-10-18T04:15:18.342Z,27.53
2022-10-18T04:17:44.915Z,26.30
2022-10-18T04:20:14.779Z,30.53
2022-10-18T04:22:41.450Z,26.33
2022-10-18T04:25:09.662Z,21.90
2022-10-18T04:27:36.655Z,22.67
2022-10-18T04:30:03.995Z,21.02
2022-10-18T04:32:30.785Z,16.43
2022-10-18T04:34:57.362Z,18.27
2022-10-18T04:37:23.983Z,17.90
2022-10-18T04:39:53.490Z,16.30
2022-10-18T04:42:21.045Z,19.50
2022-10-18T04:44:47.743Z,15.30
2022-10-18T04:47:14.442Z,16.93
2022-10-18T04:49:41.288Z,17.43
2022-10-18T04:52:08.027Z,16.40
2022-10-18T04:54:34.726Z,20.27
2022-10-18T04:57:01.311Z,18.40
2022-10-18T04:59:27.933Z,17.38
2022-10-18T05:01:54.722Z,21.03
2022-10-18T05:04:21.446Z,17.63
2022-10-18T05:06:48.291Z,19.30
2022-10-18T05:09:14.902Z,18.70
2022-10-18T05:11:41.583Z,18.47
2022-10-18T05:14:10.166Z,19.83
2022-10-18T05:16:37.250Z,19.42
2022-10-18T05:19:05.639Z,16.67
2022-10-18T05:21:33.221Z,16.60
2022-10-18T05:23:59.951Z,20.07
2022-10-18T05:26:26.672Z,17.23
2022-10-18T05:28:53.437Z,16.67
2022-10-18T05:31:20.158Z,18.70
2022-10-18T05:33:46.869Z,16.40
2022-10-18T05:36:13.468Z,16.97
2022-10-18T05:38:43.946Z,16.73
2022-10-18T05:41:11.535Z,16.60
2022-10-18T05:43:38.704Z,17.40
2022-10-18T05:46:11.853Z,18.13
2022-10-18T05:48:42.174Z,15.60
2022-10-18T05:51:09.928Z,15.40
2022-10-18T05:53:37.841Z,16.77
2022-10-18T05:56:06.079Z,17.53
2022-10-18T05:58:33.322Z,16.13
2022-10-18T06:01:01.370Z,18.53
2022-10-18T06:03:30.713Z,15.43
2022-10-18T06:06:05.941Z,15.13
2022-10-18T06:08:32.909Z,19.30
2022-10-18T06:10:59.516Z,18.20
2022-10-18T06:13:27.146Z,16.73
2022-10-18T06:15:59.789Z,17.13
2022-10-18T06:18:26.420Z,17.60
2022-10-18T06:20:59.501Z,16.38
2022-10-18T06:23:29.301Z,13.83
2022-10-18T06:26:05.653Z,17.90
2022-10-18T06:28:35.089Z,13.60
2022-10-18T06:31:01.995Z,15.40
2022-10-18T06:33:31.196Z,14.47
2022-10-18T06:35:59.921Z,14.73
2022-10-18T06:38:30.160Z,16.13
2022-10-18T06:40:57.988Z,20.20
2022-10-18T06:43:25.623Z,14.83
2022-10-18T06:45:53.437Z,17.33
2022-10-18T06:48:21.416Z,18.20
2022-10-18T06:50:56.926Z,19.07
2022-10-18T06:53:24.745Z,19.53
2022-10-18T06:55:51.352Z,20.13
2022-10-18T06:58:17.989Z,16.20
2022-10-18T07:00:45.579Z,15.23
2022-10-18T07:03:12.350Z,16.47
2022-10-18T07:05:39.075Z,15.13
2022-10-18T07:08:05.721Z,16.87
2022-10-18T07:10:32.330Z,17.60
2022-10-18T07:13:13.717Z,15.60
2022-10-18T07:15:45.634Z,16.53
2022-10-18T07:18:12.470Z,17.33
2022-10-18T07:20:39.221Z,18.20
2022-10-18T07:23:08.440Z,15.87
2022-10-18T07:25:35.594Z,21.88
2022-10-18T07:28:02.293Z,14.47
2022-10-18T07:30:28.909Z,16.77
2022-10-18T07:32:58.673Z,16.05
2022-10-18T07:35:25.359Z,14.77
2022-10-18T07:37:52.662Z,17.53
2022-10-18T07:40:19.437Z,16.40
2022-10-18T07:42:46.122Z,16.93
2022-10-18T07:45:13.570Z,15.07
2022-10-18T07:47:40.527Z,14.20
2022-10-18T07:50:07.798Z,16.67
2022-10-18T07:52:34.436Z,15.68
2022-10-18T07:55:03.106Z,16.40
2022-10-18T07:57:29.832Z,16.17
2022-10-18T07:59:57.160Z,15.80
2022-10-18T08:02:24.602Z,14.70
2022-10-18T08:04:51.455Z,14.00
2022-10-18T08:07:18.123Z,13.70
2022-10-18T08:09:44.758Z,14.17
2022-10-18T08:12:11.443Z,18.50
2022-10-18T08:14:38.046Z,16.02
2022-10-18T08:17:04.630Z,13.50
2022-10-18T08:19:31.227Z,12.88
2022-10-18T08:21:57.852Z,18.00
2022-10-18T08:24:24.534Z,15.80
2022-10-18T08:26:51.128Z,13.93
2022-10-18T08:29:23.182Z,13.40
2022-10-18T08:31:50.975Z,18.30
2022-10-18T08:34:19.849Z,13.77
2022-10-18T08:36:46.737Z,12.80
2022-10-18T08:39:13.316Z,15.13
2022-10-18T08:41:45.504Z,14.03
2022-10-18T08:44:32.497Z,13.10
2022-10-18T08:47:00.722Z,15.20
2022-10-18T08:49:36.353Z,13.73
2022-10-18T08:52:04.516Z,12.67
2022-10-18T08:54:44.242Z,16.97
2022-10-18T08:57:15.934Z,12.47
2022-10-18T08:59:42.604Z,11.03
2022-10-18T09:02:30.860Z,12.90
2022-10-18T09:05:06.949Z,10.67
2022-10-18T09:07:51.526Z,12.80
2022-10-18T09:10:33.408Z,11.37
2022-10-18T09:13:28.462Z,13.90
2022-10-18T09:16:04.801Z,11.80
2022-10-18T09:19:02.547Z,12.63
2022-10-18T09:21:47.754Z,13.40
2022-10-18T09:24:40.150Z,12.63
2022-10-18T09:27:20.518Z,10.00
2022-10-18T09:30:03.164Z,10.53
2022-10-18T09:32:55.089Z,11.30
2022-10-18T09:35:26.100Z,11.00
2022-10-18T09:38:02.113Z,12.27
2022-10-18T09:40:35.220Z,11.90
2022-10-18T09:43:11.629Z,10.67
2022-10-18T09:45:44.839Z,11.63
2022-10-18T09:48:27.916Z,12.43
2022-10-18T09:51:17.656Z,13.00
2022-10-18T09:54:02.148Z,16.23
2022-10-18T09:56:42.033Z,11.97
2022-10-18T09:59:37.613Z,13.97
2022-10-18T10:02:05.530Z,11.00
2022-10-18T10:04:32.162Z,12.90
2022-10-18T10:07:01.241Z,11.90
2022-10-18T10:09:40.687Z,14.27
2022-10-18T10:12:27.397Z,11.70
2022-10-18T10:14:53.992Z,11.48
2022-10-18T10:17:31.885Z,11.23
2022-10-18T10:20:22.506Z,12.60
2022-10-18T10:22:51.642Z,13.50
2022-10-18T10:25:35.863Z,15.32
2022-10-18T10:28:15.566Z,15.20
2022-10-18T10:30:42.375Z,12.77
2022-10-18T10:33:28.879Z,13.00
2022-10-18T10:35:59.904Z,12.60
2022-10-18T10:38:29.466Z,16.70
2022-10-18T10:40:57.070Z,14.87
2022-10-18T10:43:38.720Z,15.87
2022-10-18T10:46:16.092Z,15.73
2022-10-18T10:49:03.288Z,13.30
2022-10-18T10:51:40.656Z,14.30
2022-10-18T10:54:21.337Z,15.20
2022-10-18T10:57:11.042Z,14.40
2022-10-18T10:59:50.260Z,12.30
2022-10-18T11:02:20.619Z,13.97
2022-10-18T11:04:55.263Z,14.13
2022-10-18T11:07:43.055Z,13.63
2022-10-18T11:10:17.046Z,13.73
2022-10-18T11:12:45.017Z,20.17
2022-10-18T11:15:14.378Z,13.30
2022-10-18T11:18:05.698Z,14.67
2022-10-18T11:20:38.208Z,17.43
2022-10-18T11:23:11.758Z,17.85
2022-10-18T11:26:03.300Z,15.67
2022-10-18T11:28:50.572Z,17.07
2022-10-18T11:31:38.792Z,13.67
2022-10-18T11:34:43.056Z,12.70
2022-10-18T11:37:49.020Z,14.20
2022-10-18T11:40:35.903Z,16.00
2022-10-18T11:43:57.057Z,15.10
2022-10-18T11:46:46.394Z,13.67
2022-10-18T11:49:34.968Z,17.03
2022-10-18T11:52:15.494Z,25.10
2022-10-18T11:54:47.797Z,24.93
2022-10-18T11:57:36.323Z,13.90
2022-10-18T12:00:41.025Z,13.87
2022-10-18T12:03:22.682Z,14.97
2022-10-18T12:05:51.250Z,15.10
2022-10-18T12:08:26.692Z,13.63
2022-10-18T12:11:04.981Z,18.10
2022-10-18T12:13:57.641Z,14.40
2022-10-18T12:16:49.376Z,13.10
2022-10-18T12:19:26.183Z,14.05
2022-10-18T12:21:57.485Z,16.03
2022-10-18T12:24:30.166Z,17.27
2022-10-18T12:27:01.777Z,13.67
2022-10-18T12:29:39.614Z,14.95
2022-10-18T12:32:08.573Z,14.50
2022-10-18T12:34:45.360Z,12.50
2022-10-18T12:37:29.756Z,12.80
2022-10-18T12:40:12.390Z,12.93
2022-10-18T12:42:45.174Z,15.93
2022-10-18T12:45:34.200Z,14.93
2022-10-18T12:48:42.440Z,17.80
2022-10-18T12:51:23.334Z,13.90
2022-10-18T12:54:12.548Z,19.42
2022-10-18T12:56:42.099Z,12.98
2022-10-18T12:59:15.220Z,12.90
2022-10-18T13:01:51.322Z,13.13
2022-10-18T13:04:27.293Z,14.97
2022-10-18T13:07:07.730Z,14.53
2022-10-18T13:09:39.792Z,17.13
2022-10-18T13:12:09.339Z,17.07
2022-10-18T13:15:07.089Z,16.87
2022-10-18T13:18:01.410Z,18.17
2022-10-18T13:20:33.517Z,17.47
2022-10-18T13:23:09.085Z,17.10
2022-10-18T13:26:02.768Z,19.60
2022-10-18T13:28:57.814Z,17.60
2022-10-18T13:31:44.824Z,15.93
2022-10-18T13:34:34.936Z,19.17
2022-10-18T13:37:20.026Z,18.50
2022-10-18T13:39:47.468Z,14.33
2022-10-18T13:42:30.431Z,15.18
2022-10-18T13:45:32.447Z,16.67
2022-10-18T13:48:27.001Z,16.30
2022-10-18T13:51:01.350Z,18.45
2022-10-18T13:53:41.176Z,17.92
2022-10-18T13:56:35.333Z,18.50
2022-10-18T13:59:29.719Z,16.73
2022-10-18T14:02:30.773Z,17.77
2022-10-18T14:05:25.046Z,17.85
2022-10-18T14:08:04.727Z,18.60
2022-10-18T14:11:01.892Z,18.40
2022-10-18T14:14:04.593Z,22.65
2022-10-18T14:16:34.858Z,19.20
2022-10-18T14:19:34.828Z,18.33
2022-10-18T14:22:10.123Z,17.37
2022-10-18T14:24:40.478Z,18.40
2022-10-18T14:27:21.229Z,15.63
2022-10-18T14:29:49.458Z,17.10
2022-10-18T14:32:28.353Z,18.13
2022-10-18T14:35:27.267Z,18.93
2022-10-18T14:37:43.113Z,19.57
2022-10-18T14:40:30.738Z,22.07
2022-10-18T14:43:06.782Z,21.20
2022-10-18T14:45:33.578Z,20.70
2022-10-18T14:48:26.621Z,21.67
2022-10-18T14:51:00.194Z,21.50
2022-10-18T14:53:34.473Z,21.67
2022-10-18T14:56:05.852Z,22.57
2022-10-18T14:58:34.949Z,21.17
2022-10-18T15:01:01.900Z,23.50
2022-10-18T15:03:34.157Z,26.48
2022-10-18T15:06:05.768Z,24.43
2022-10-18T15:08:43.153Z,21.93
2022-10-18T15:11:14.312Z,27.07
2022-10-18T15:13:56.516Z,25.33
2022-10-18T15:16:26.823Z,24.00
2022-10-18T15:19:36.200Z,26.13
2022-10-18T15:25:06.439Z,23.20
2022-10-18T15:27:37.723Z,29.77
2022-10-18T15:30:13.965Z,25.93
2022-10-18T15:32:57.548Z,27.70
2022-10-18T15:35:31.495Z,27.45
2022-10-18T15:38:13.188Z,26.47
2022-10-18T15:40:41.053Z,32.63
2022-10-18T15:43:25.927Z,25.07
2022-10-18T15:46:01.607Z,30.43
2022-10-18T15:48:35.598Z,30.73
2022-10-18T15:51:26.508Z,30.20
2022-10-18T15:53:54.492Z,30.43
2022-10-18T15:56:31.391Z,36.22
2022-10-18T15:59:00.703Z,30.48
2022-10-18T16:01:34.917Z,35.50
2022-10-18T16:04:07.249Z,32.13
2022-10-18T16:06:37.315Z,40.27
2022-10-18T16:09:04.065Z,32.13
2022-10-18T16:11:31.042Z,24.70
2022-10-18T16:14:00.351Z,26.23
2022-10-18T16:16:28.961Z,31.97
2022-10-18T16:18:55.985Z,28.87
2022-10-18T16:21:31.909Z,31.70
2022-10-18T16:23:58.789Z,33.23
2022-10-18T16:26:26.145Z,36.47
2022-10-18T16:28:54.572Z,33.90
2022-10-18T16:31:23.737Z,37.05
2022-10-18T16:33:51.980Z,41.10
2022-10-18T16:36:21.080Z,37.40
2022-10-18T16:38:48.641Z,46.73
2022-10-18T16:41:15.887Z,36.07
2022-10-18T16:43:47.581Z,33.83
2022-10-18T16:46:20.110Z,34.83
2022-10-18T16:48:47.850Z,36.67
2022-10-18T16:51:14.516Z,39.83
2022-10-18T16:53:41.217Z,54.23
2022-10-18T16:56:14.506Z,51.83
2022-10-18T16:58:41.577Z,53.10
2022-10-18T17:01:14.908Z,42.97
2022-10-18T17:03:42.067Z,50.83
2022-10-18T17:06:29.323Z,46.17
2022-10-18T17:08:57.107Z,47.07
2022-10-18T17:11:26.067Z,45.37
2022-10-18T17:13:53.206Z,40.90
2022-10-18T17:16:22.580Z,41.10
2022-10-18T17:18:49.374Z,42.10
2022-10-18T17:21:15.960Z,43.33
2022-10-18T17:23:43.098Z,44.20
2022-10-18T17:26:30.441Z,43.57
2022-10-18T17:29:04.281Z,40.33
2022-10-18T17:31:32.442Z,46.83
2022-10-18T17:34:01.418Z,53.47
2022-10-18T17:36:28.151Z,45.10
2022-10-18T17:38:55.099Z,50.13
2022-10-18T17:41:22.044Z,41.67
2022-10-18T17:43:49.009Z,45.60
2022-10-18T17:46:16.232Z,54.83
2022-10-18T17:48:42.897Z,34.73
2022-10-18T17:51:15.501Z,36.13
2022-10-18T17:53:42.144Z,38.97
2022-10-18T17:56:10.217Z,36.00
2022-10-18T17:58:36.931Z,44.43
2022-10-18T18:01:21.422Z,47.00
2022-10-18T18:03:48.106Z,36.90
2022-10-18T18:06:18.038Z,42.97
2022-10-18T18:08:45.374Z,47.73
2022-10-18T18:11:12.214Z,45.30
2022-10-18T18:13:39.044Z,42.27
2022-10-18T18:16:32.877Z,51.67
2022-10-18T18:18:59.552Z,54.30
2022-10-18T18:21:27.087Z,45.43
2022-10-18T18:23:54.286Z,50.07
2022-10-18T18:26:21.913Z,41.22
2022-10-18T18:28:48.899Z,54.70
2022-10-18T18:31:18.099Z,45.50
2022-10-18T18:33:45.377Z,38.53
2022-10-18T18:36:12.684Z,42.60
2022-10-18T18:38:42.331Z,44.37
2022-10-18T18:41:17.853Z,42.23
2022-10-18T18:43:49.770Z,45.27
2022-10-18T18:46:18.633Z,45.53
2022-10-18T18:48:45.441Z,54.10
2022-10-18T18:51:15.024Z,39.35
2022-10-18T18:53:43.124Z,73.82
2022-10-18T18:56:12.622Z,61.67
2022-10-18T18:58:42.267Z,82.83
2022-10-18T19:01:13.653Z,57.90
2022-10-18T19:03:40.701Z,48.80
2022-10-18T19:06:10.756Z,52.08
2022-10-18T19:08:39.249Z,71.23
2022-10-18T19:11:09.181Z,40.90
2022-10-18T19:13:36.456Z,49.63
2022-10-18T19:16:26.074Z,44.85
2022-10-18T19:19:00.473Z,40.80
2022-10-18T19:21:30.292Z,45.53
2022-10-18T19:23:58.189Z,55.53
2022-10-18T19:26:37.320Z,45.75
2022-10-18T19:29:11.947Z,61.30
2022-10-18T19:31:39.328Z,45.30
2022-10-18T19:34:08.088Z,47.37
2022-10-18T19:36:35.681Z,44.07
2022-10-18T19:39:03.490Z,51.33
2022-10-18T19:41:30.238Z,43.60
2022-10-18T19:43:57.137Z,56.93
2022-10-18T19:46:24.504Z,50.93
2022-10-18T19:48:51.457Z,37.10
2022-10-18T19:51:22.829Z,38.95
2022-10-18T19:53:51.868Z,85.77
2022-10-18T19:56:21.198Z,38.77
2022-10-18T19:58:48.782Z,59.33
2022-10-18T20:01:16.738Z,53.20
2022-10-18T20:03:44.393Z,86.90
2022-10-18T20:06:11.441Z,57.70
2022-10-18T20:08:38.711Z,42.30
2022-10-18T20:11:10.978Z,38.33
2022-10-18T20:13:37.971Z,35.83
2022-10-18T20:16:07.329Z,97.20
2022-10-18T20:18:34.232Z,85.10
2022-10-18T20:21:03.477Z,48.27
2022-10-18T20:23:32.216Z,54.87
2022-10-18T20:26:02.125Z,37.77
2022-10-18T20:28:29.203Z,33.13
2022-10-18T20:31:04.878Z,52.13
2022-10-18T20:33:32.246Z,26.90
2022-10-18T20:36:09.466Z,44.30
2022-10-18T20:38:38.514Z,38.72
2022-10-18T20:41:21.877Z,56.67
2022-10-18T20:43:53.153Z,34.80
2022-10-18T20:46:20.740Z,38.25
2022-10-18T20:48:49.428Z,39.60
2022-10-18T20:51:17.117Z,29.30
2022-10-18T20:53:44.002Z,32.67
2022-10-18T20:56:13.062Z,28.70
2022-10-18T20:58:41.132Z,48.47
2022-10-18T21:01:21.207Z,33.63
2022-10-18T21:03:49.802Z,39.72
2022-10-18T21:06:19.041Z,35.40
2022-10-18T21:08:46.545Z,40.65
2022-10-18T21:11:14.028Z,41.83
2022-10-18T21:13:40.884Z,26.83
2022-10-18T21:16:08.494Z,50.60
2022-10-18T21:18:36.619Z,41.27
2022-10-18T21:23:43.717Z,59.10
2022-10-18T21:26:19.041Z,46.63
2022-10-18T21:28:45.816Z,66.40
2022-10-18T21:31:21.231Z,73.37
2022-10-18T21:33:53.229Z,67.80
2022-10-18T21:36:20.034Z,49.07
2022-10-18T21:38:46.880Z,23.20
2022-10-18T21:41:15.692Z,31.87
2022-10-18T21:43:48.078Z,29.70
2022-10-18T21:46:16.189Z,36.63
2022-10-18T21:48:44.714Z,39.50
2022-10-18T21:51:12.454Z,21.80
2022-10-18T21:53:41.497Z,59.07
2022-10-18T21:56:10.460Z,23.27
2022-10-18T21:58:38.022Z,42.23
2022-10-18T22:01:15.726Z,35.83
2022-10-18T22:03:43.832Z,37.13
2022-10-18T22:06:14.527Z,54.23
2022-10-18T22:08:42.927Z,63.27
2022-10-18T22:11:10.987Z,23.70
2022-10-18T22:13:37.868Z,23.23
2022-10-18T22:16:05.887Z,51.77
2022-10-18T22:18:33.533Z,22.40
2022-10-18T22:21:03.267Z,25.27
2022-10-18T22:23:48.177Z,54.60
2022-10-18T22:26:20.801Z,51.20
2022-10-18T22:28:48.217Z,61.73
2022-10-18T22:31:21.641Z,44.43
2022-10-18T22:34:03.176Z,17.98
2022-10-18T22:36:30.838Z,54.60
2022-10-18T22:38:57.514Z,24.87
2022-10-18T22:41:24.438Z,33.33
2022-10-18T22:43:51.893Z,54.33
2022-10-18T22:46:18.957Z,44.60
2022-10-18T22:48:46.043Z,38.97
2022-10-18T22:51:12.906Z,68.20
2022-10-18T22:53:40.180Z,19.73
2022-10-18T22:56:08.366Z,31.03
2022-10-18T22:58:34.995Z,21.37
2022-10-18T23:01:07.631Z,27.93
2022-10-18T23:03:34.482Z,41.67
2022-10-18T23:06:02.490Z,49.43
2022-10-18T23:08:30.318Z,46.73
2022-10-18T23:10:59.172Z,38.70
2022-10-18T23:13:27.363Z,30.05
2022-10-18T23:16:04.353Z,24.97
2022-10-18T23:18:32.507Z,26.20
2022-10-18T23:21:07.508Z,40.37
2022-10-18T23:23:36.517Z,38.83
2022-10-18T23:26:05.637Z,49.40
2022-10-18T23:28:37.373Z,52.47
2022-10-18T23:31:12.785Z,52.65
2022-10-18T23:33:40.373Z,47.83
2022-10-18T23:36:08.193Z,18.80
2022-10-18T23:38:35.833Z,59.45
2022-10-18T23:41:02.562Z,24.30
2022-10-18T23:43:29.301Z,53.93
2022-10-18T23:45:56.320Z,25.20
2022-10-18T23:48:22.997Z,22.23
2022-10-18T23:50:49.630Z,71.47
2022-10-18T23:53:16.324Z,40.80
2022-10-18T23:55:53.988Z,66.82
2022-10-18T23:58:20.711Z,32.07
